sensor_id;sensor_type;location;lat;lon;timestamp;P1;durP1;ratioP1;P2;durP2;ratioP2
44664;SDS011;30382;48.802;9.388;2022-07-19T00:01:29;4.27;;;3.23;;
44664;SDS011;30382;48.802;9.388;2022-07-19T00:04:14;4.37;;;2.70;;
44664;SDS011;30382;48.802;9.388;2022-07-19T00:06:58;4.13;;;3.50;;
44664;SDS011;30382;48.802;9.388;2022-07-19T00:09:42;3.60;;;3.40;;
44664;SDS011;30382;48.802;9.388;2022-07-19T00:12:26;4.13;;;3.60;;
44664;SDS011;30382;48.802;9.388;2022-07-19T00:15:12;3.80;;;3.47;;
44664;SDS011;30382;48.802;9.388;2022-07-19T00:17:57;3.90;;;3.60;;
44664;SDS011;30382;48.802;9.388;2022-07-19T00:20:41;3.47;;;3.13;;
44664;SDS011;30382;48.802;9.388;2022-07-19T00:23:25;3.30;;;3.00;;
44664;SDS011;30382;48.802;9.388;2022-07-19T00:26:10;4.40;;;4.03;;
44664;SDS011;30382;48.802;9.388;2022-07-19T00:28:54;3.80;;;3.50;;
44664;SDS011;30382;48.802;9.388;2022-07-19T00:31:39;3.27;;;3.07;;
44664;SDS011;30382;48.802;9.388;2022-07-19T00:34:23;3.60;;;3.30;;
44664;SDS011;30382;48.802;9.388;2022-07-19T00:37:07;3.97;;;3.77;;
44664;SDS011;30382;48.802;9.388;2022-07-19T00:39:52;4.73;;;3.73;;
44664;SDS011;30382;48.802;9.388;2022-07-19T00:42:36;3.10;;;2.90;;
44664;SDS011;30382;48.802;9.388;2022-07-19T00:45:22;4.30;;;3.27;;
44664;SDS011;30382;48.802;9.388;2022-07-19T00:48:06;3.90;;;3.60;;
44664;SDS011;30382;48.802;9.388;2022-07-19T00:50:51;7.47;;;4.37;;
44664;SDS011;30382;48.802;9.388;2022-07-19T00:53:36;4.00;;;3.70;;
44664;SDS011;30382;48.802;9.388;2022-07-19T00:56:20;4.63;;;3.53;;
44664;SDS011;30382;48.802;9.388;2022-07-19T00:59:06;4.50;;;3.60;;
44664;SDS011;30382;48.802;9.388;2022-07-19T01:01:51;3.17;;;2.97;;
44664;SDS011;30382;48.802;9.388;2022-07-19T01:04:36;3.60;;;3.30;;
44664;SDS011;30382;48.802;9.388;2022-07-19T01:07:21;3.77;;;3.33;;
44664;SDS011;30382;48.802;9.388;2022-07-19T01:10:06;4.17;;;3.67;;
44664;SDS011;30382;48.802;9.388;2022-07-19T01:12:50;4.00;;;2.80;;
44664;SDS011;30382;48.802;9.388;2022-07-19T01:15:35;3.80;;;3.50;;
44664;SDS011;30382;48.802;9.388;2022-07-19T01:18:19;3.50;;;3.20;;
44664;SDS011;30382;48.802;9.388;2022-07-19T01:21:03;3.57;;;3.30;;
44664;SDS011;30382;48.802;9.388;2022-07-19T01:23:48;3.43;;;3.23;;
44664;SDS011;30382;48.802;9.388;2022-07-19T01:26:32;5.07;;;3.33;;
44664;SDS011;30382;48.802;9.388;2022-07-19T01:29:18;3.37;;;3.07;;
44664;SDS011;30382;48.802;9.388;2022-07-19T01:32:03;6.77;;;3.90;;
44664;SDS011;30382;48.802;9.388;2022-07-19T01:34:47;5.80;;;3.20;;
44664;SDS011;30382;48.802;9.388;2022-07-19T01:37:31;4.97;;;2.90;;
44664;SDS011;30382;48.802;9.388;2022-07-19T01:40:16;3.80;;;3.47;;
44664;SDS011;30382;48.802;9.388;2022-07-19T01:43:00;4.33;;;3.67;;
44664;SDS011;30382;48.802;9.388;2022-07-19T01:45:45;3.17;;;2.97;;
44664;SDS011;30382;48.802;9.388;2022-07-19T01:48:29;3.43;;;3.23;;
44664;SDS011;30382;48.802;9.388;2022-07-19T01:51:13;3.43;;;3.23;;
44664;SDS011;30382;48.802;9.388;2022-07-19T01:53:57;3.20;;;2.97;;
44664;SDS011;30382;48.802;9.388;2022-07-19T01:56:42;3.70;;;3.23;;
44664;SDS011;30382;48.802;9.388;2022-07-19T01:59:26;3.60;;;3.20;;
44664;SDS011;30382;48.802;9.388;2022-07-19T02:02:11;3.23;;;3.03;;
44664;SDS011;30382;48.802;9.388;2022-07-19T02:04:55;2.90;;;2.63;;
44664;SDS011;30382;48.802;9.388;2022-07-19T02:07:39;5.27;;;2.80;;
44664;SDS011;30382;48.802;9.388;2022-07-19T02:10:23;3.73;;;3.43;;
44664;SDS011;30382;48.802;9.388;2022-07-19T02:13:08;3.60;;;3.30;;
44664;SDS011;30382;48.802;9.388;2022-07-19T02:15:52;3.50;;;3.20;;
44664;SDS011;30382;48.802;9.388;2022-07-19T02:18:36;3.47;;;3.17;;
44664;SDS011;30382;48.802;9.388;2022-07-19T02:21:21;3.87;;;3.57;;
44664;SDS011;30382;48.802;9.388;2022-07-19T02:24:06;3.63;;;3.33;;
44664;SDS011;30382;48.802;9.388;2022-07-19T02:26:50;3.50;;;3.20;;
44664;SDS011;30382;48.802;9.388;2022-07-19T02:29:35;3.60;;;3.30;;
44664;SDS011;30382;48.802;9.388;2022-07-19T02:32:19;3.40;;;3.20;;
44664;SDS011;30382;48.802;9.388;2022-07-19T02:35:06;3.30;;;3.10;;
44664;SDS011;30382;48.802;9.388;2022-07-19T02:37:51;4.07;;;3.80;;
44664;SDS011;30382;48.802;9.388;2022-07-19T02:40:35;3.60;;;3.30;;
44664;SDS011;30382;48.802;9.388;2022-07-19T02:43:20;4.00;;;3.37;;
44664;SDS011;30382;48.802;9.388;2022-07-19T02:46:04;3.90;;;3.10;;
44664;SDS011;30382;48.802;9.388;2022-07-19T02:48:48;4.70;;;3.73;;
44664;SDS011;30382;48.802;9.388;2022-07-19T02:51:33;3.57;;;3.27;;
44664;SDS011;30382;48.802;9.388;2022-07-19T02:54:17;3.53;;;3.33;;
44664;SDS011;30382;48.802;9.388;2022-07-19T02:57:01;4.67;;;3.30;;
44664;SDS011;30382;48.802;9.388;2022-07-19T02:59:45;6.07;;;3.50;;
44664;SDS011;30382;48.802;9.388;2022-07-19T03:02:29;3.87;;;3.37;;
44664;SDS011;30382;48.802;9.388;2022-07-19T03:05:14;3.50;;;3.30;;
44664;SDS011;30382;48.802;9.388;2022-07-19T03:07:58;3.77;;;3.47;;
44664;SDS011;30382;48.802;9.388;2022-07-19T03:10:42;4.47;;;2.83;;
44664;SDS011;30382;48.802;9.388;2022-07-19T03:13:27;3.47;;;3.17;;
44664;SDS011;30382;48.802;9.388;2022-07-19T03:16:11;4.40;;;3.23;;
44664;SDS011;30382;48.802;9.388;2022-07-19T03:18:55;3.57;;;3.30;;
44664;SDS011;30382;48.802;9.388;2022-07-19T03:21:40;3.80;;;3.60;;
44664;SDS011;30382;48.802;9.388;2022-07-19T03:38:05;3.67;;;3.37;;
44664;SDS011;30382;48.802;9.388;2022-07-19T05:00:14;8.37;;;3.73;;
44664;SDS011;30382;48.802;9.388;2022-07-19T05:02:58;5.73;;;3.73;;
44664;SDS011;30382;48.802;9.388;2022-07-19T05:05:43;6.13;;;4.40;;
44664;SDS011;30382;48.802;9.388;2022-07-19T05:08:27;4.00;;;3.20;;
44664;SDS011;30382;48.802;9.388;2022-07-19T05:11:11;4.37;;;3.97;;
44664;SDS011;30382;48.802;9.388;2022-07-19T05:13:55;3.73;;;3.43;;
44664;SDS011;30382;48.802;9.388;2022-07-19T05:16:40;3.90;;;3.60;;
44664;SDS011;30382;48.802;9.388;2022-07-19T05:19:25;5.63;;;3.80;;
44664;SDS011;30382;48.802;9.388;2022-07-19T05:22:09;4.00;;;3.73;;
44664;SDS011;30382;48.802;9.388;2022-07-19T05:24:54;5.73;;;4.83;;
44664;SDS011;30382;48.802;9.388;2022-07-19T05:27:39;3.87;;;3.50;;
44664;SDS011;30382;48.802;9.388;2022-07-19T05:30:24;4.20;;;3.87;;
44664;SDS011;30382;48.802;9.388;2022-07-19T05:33:08;7.53;;;3.67;;
44664;SDS011;30382;48.802;9.388;2022-07-19T05:35:52;3.80;;;3.50;;
44664;SDS011;30382;48.802;9.388;2022-07-19T05:38:37;4.53;;;3.43;;
44664;SDS011;30382;48.802;9.388;2022-07-19T05:41:23;4.23;;;3.87;;
44664;SDS011;30382;48.802;9.388;2022-07-19T05:44:08;4.33;;;3.93;;
44664;SDS011;30382;48.802;9.388;2022-07-19T05:46:52;5.00;;;3.90;;
44664;SDS011;30382;48.802;9.388;2022-07-19T05:49:36;5.23;;;4.10;;
44664;SDS011;30382;48.802;9.388;2022-07-19T05:52:21;4.33;;;3.60;;
44664;SDS011;30382;48.802;9.388;2022-07-19T05:55:05;3.97;;;3.53;;
44664;SDS011;30382;48.802;9.388;2022-07-19T05:57:53;6.27;;;4.70;;
44664;SDS011;30382;48.802;9.388;2022-07-19T06:00:37;6.97;;;4.40;;
44664;SDS011;30382;48.802;9.388;2022-07-19T06:03:21;5.00;;;4.00;;
44664;SDS011;30382;48.802;9.388;2022-07-19T06:06:05;6.20;;;4.27;;
44664;SDS011;30382;48.802;9.388;2022-07-19T06:08:50;5.10;;;4.60;;
44664;SDS011;30382;48.802;9.388;2022-07-19T06:11:34;4.90;;;4.27;;
44664;SDS011;30382;48.802;9.388;2022-07-19T06:14:19;5.70;;;4.30;;
44664;SDS011;30382;48.802;9.388;2022-07-19T06:19:47;4.47;;;4.13;;
44664;SDS011;30382;48.802;9.388;2022-07-19T06:22:31;4.83;;;4.43;;
44664;SDS011;30382;48.802;9.388;2022-07-19T06:25:16;6.73;;;4.63;;
44664;SDS011;30382;48.802;9.388;2022-07-19T06:28:00;6.73;;;4.37;;
44664;SDS011;30382;48.802;9.388;2022-07-19T06:36:13;6.57;;;3.80;;
44664;SDS011;30382;48.802;9.388;2022-07-19T06:38:57;6.03;;;5.53;;
44664;SDS011;30382;48.802;9.388;2022-07-19T06:41:41;4.17;;;3.87;;
44664;SDS011;30382;48.802;9.388;2022-07-19T06:44:35;4.30;;;3.87;;
44664;SDS011;30382;48.802;9.388;2022-07-19T06:47:20;9.70;;;3.87;;
44664;SDS011;30382;48.802;9.388;2022-07-19T06:50:04;8.43;;;4.93;;
44664;SDS011;30382;48.802;9.388;2022-07-19T06:55:32;4.90;;;4.50;;
44664;SDS011;30382;48.802;9.388;2022-07-19T06:58:17;6.33;;;4.17;;
44664;SDS011;30382;48.802;9.388;2022-07-19T07:01:02;6.90;;;4.13;;
44664;SDS011;30382;48.802;9.388;2022-07-19T07:03:47;7.77;;;4.57;;
44664;SDS011;30382;48.802;9.388;2022-07-19T07:14:44;4.93;;;4.37;;
44664;SDS011;30382;48.802;9.388;2022-07-19T07:17:29;3.80;;;3.40;;
44664;SDS011;30382;48.802;9.388;2022-07-19T07:22:57;4.90;;;3.50;;
44664;SDS011;30382;48.802;9.388;2022-07-19T07:25:41;4.40;;;3.60;;
44664;SDS011;30382;48.802;9.388;2022-07-19T07:28:26;4.43;;;3.70;;
44664;SDS011;30382;48.802;9.388;2022-07-19T07:31:10;3.47;;;3.20;;
44664;SDS011;30382;48.802;9.388;2022-07-19T07:33:54;3.25;;;2.85;;
44664;SDS011;30382;48.802;9.388;2022-07-19T07:36:38;2.93;;;2.73;;
44664;SDS011;30382;48.802;9.388;2022-07-19T07:39:23;3.30;;;3.00;;
44664;SDS011;30382;48.802;9.388;2022-07-19T07:42:07;3.73;;;2.70;;
44664;SDS011;30382;48.802;9.388;2022-07-19T07:44:52;3.40;;;3.20;;
44664;SDS011;30382;48.802;9.388;2022-07-19T07:47:36;4.13;;;3.07;;
44664;SDS011;30382;48.802;9.388;2022-07-19T07:50:20;4.03;;;2.73;;
44664;SDS011;30382;48.802;9.388;2022-07-19T07:53:05;3.37;;;3.03;;
44664;SDS011;30382;48.802;9.388;2022-07-19T07:55:49;2.57;;;2.37;;
44664;SDS011;30382;48.802;9.388;2022-07-19T07:58:33;2.87;;;2.77;;
44664;SDS011;30382;48.802;9.388;2022-07-19T08:01:17;2.40;;;2.20;;
44664;SDS011;30382;48.802;9.388;2022-07-19T08:04:02;3.23;;;2.53;;
44664;SDS011;30382;48.802;9.388;2022-07-19T08:06:46;3.30;;;2.40;;
44664;SDS011;30382;48.802;9.388;2022-07-19T08:09:30;2.70;;;2.50;;
44664;SDS011;30382;48.802;9.388;2022-07-19T08:12:15;3.37;;;2.37;;
44664;SDS011;30382;48.802;9.388;2022-07-19T08:15:00;3.00;;;2.00;;
44664;SDS011;30382;48.802;9.388;2022-07-19T08:17:44;3.67;;;2.30;;
44664;SDS011;30382;48.802;9.388;2022-07-19T08:20:28;2.87;;;2.37;;
44664;SDS011;30382;48.802;9.388;2022-07-19T08:23:13;4.40;;;2.40;;
44664;SDS011;30382;48.802;9.388;2022-07-19T08:25:57;3.43;;;2.47;;
44664;SDS011;30382;48.802;9.388;2022-07-19T08:28:41;2.47;;;2.27;;
44664;SDS011;30382;48.802;9.388;2022-07-19T08:31:25;2.83;;;2.33;;
44664;SDS011;30382;48.802;9.388;2022-07-19T08:34:10;3.03;;;2.70;;
44664;SDS011;30382;48.802;9.388;2022-07-19T08:36:54;2.20;;;1.97;;
44664;SDS011;30382;48.802;9.388;2022-07-19T08:39:38;3.23;;;2.37;;
44664;SDS011;30382;48.802;9.388;2022-07-19T08:42:23;2.80;;;2.40;;
44664;SDS011;30382;48.802;9.388;2022-07-19T08:45:09;2.20;;;2.10;;
44664;SDS011;30382;48.802;9.388;2022-07-19T08:47:53;2.60;;;2.40;;
44664;SDS011;30382;48.802;9.388;2022-07-19T08:50:38;2.63;;;2.42;;
44664;SDS011;30382;48.802;9.388;2022-07-19T08:53:23;3.67;;;2.57;;
44664;SDS011;30382;48.802;9.388;2022-07-19T08:56:07;3.00;;;2.20;;
44664;SDS011;30382;48.802;9.388;2022-07-19T08:59:12;5.10;;;2.67;;
44664;SDS011;30382;48.802;9.388;2022-07-19T09:01:56;4.00;;;2.57;;
44664;SDS011;30382;48.802;9.388;2022-07-19T09:04:41;2.40;;;2.30;;
44664;SDS011;30382;48.802;9.388;2022-07-19T09:07:25;2.27;;;2.07;;
44664;SDS011;30382;48.802;9.388;2022-07-19T09:10:16;3.50;;;3.20;;
44664;SDS011;30382;48.802;9.388;2022-07-19T09:13:08;5.20;;;2.43;;
44664;SDS011;30382;48.802;9.388;2022-07-19T09:15:53;11.53;;;3.70;;
44664;SDS011;30382;48.802;9.388;2022-07-19T09:18:38;3.63;;;2.57;;
44664;SDS011;30382;48.802;9.388;2022-07-19T09:21:22;3.80;;;3.07;;
44664;SDS011;30382;48.802;9.388;2022-07-19T09:24:07;6.47;;;3.07;;
44664;SDS011;30382;48.802;9.388;2022-07-19T09:29:44;2.90;;;2.60;;
44664;SDS011;30382;48.802;9.388;2022-07-19T09:32:29;4.57;;;2.83;;
44664;SDS011;30382;48.802;9.388;2022-07-19T09:35:13;12.90;;;3.73;;
44664;SDS011;30382;48.802;9.388;2022-07-19T09:38:12;4.90;;;3.27;;
44664;SDS011;30382;48.802;9.388;2022-07-19T09:46:41;3.53;;;3.23;;
44664;SDS011;30382;48.802;9.388;2022-07-19T09:49:28;3.47;;;3.07;;
44664;SDS011;30382;48.802;9.388;2022-07-19T09:52:13;5.27;;;3.30;;
44664;SDS011;30382;48.802;9.388;2022-07-19T09:55:03;4.73;;;3.17;;
44664;SDS011;30382;48.802;9.388;2022-07-19T09:57:49;3.20;;;2.90;;
44664;SDS011;30382;48.802;9.388;2022-07-19T10:00:33;6.93;;;3.47;;
44664;SDS011;30382;48.802;9.388;2022-07-19T10:03:18;5.37;;;3.23;;
44664;SDS011;30382;48.802;9.388;2022-07-19T10:06:02;2.93;;;2.67;;
44664;SDS011;30382;48.802;9.388;2022-07-19T10:08:46;7.87;;;3.13;;
44664;SDS011;30382;48.802;9.388;2022-07-19T10:11:31;3.30;;;3.00;;
44664;SDS011;30382;48.802;9.388;2022-07-19T10:14:15;2.50;;;2.30;;
44664;SDS011;30382;48.802;9.388;2022-07-19T11:09:22;3.15;;;2.95;;
44664;SDS011;30382;48.802;9.388;2022-07-19T11:14:50;3.47;;;3.10;;
44664;SDS011;30382;48.802;9.388;2022-07-19T11:17:35;3.90;;;3.60;;
44664;SDS011;30382;48.802;9.388;2022-07-19T11:20:21;4.20;;;3.75;;
44664;SDS011;30382;48.802;9.388;2022-07-19T11:23:05;7.03;;;3.75;;
44664;SDS011;30382;48.802;9.388;2022-07-19T11:25:49;7.75;;;4.07;;
44664;SDS011;30382;48.802;9.388;2022-07-19T11:28:35;4.18;;;3.78;;
44664;SDS011;30382;48.802;9.388;2022-07-19T11:31:21;4.10;;;3.67;;
44664;SDS011;30382;48.802;9.388;2022-07-19T11:34:10;3.80;;;2.80;;
44664;SDS011;30382;48.802;9.388;2022-07-19T11:36:58;6.47;;;2.97;;
44664;SDS011;30382;48.802;9.388;2022-07-19T11:39:46;3.47;;;3.00;;
44664;SDS011;30382;48.802;9.388;2022-07-19T11:42:35;3.47;;;3.17;;
44664;SDS011;30382;48.802;9.388;2022-07-19T11:45:20;10.25;;;4.05;;
44664;SDS011;30382;48.802;9.388;2022-07-19T11:48:05;3.95;;;2.90;;
44664;SDS011;30382;48.802;9.388;2022-07-19T11:50:56;3.53;;;3.33;;
44664;SDS011;30382;48.802;9.388;2022-07-19T11:53:41;3.60;;;3.30;;
44664;SDS011;30382;48.802;9.388;2022-07-19T11:56:28;4.38;;;3.00;;
44664;SDS011;30382;48.802;9.388;2022-07-19T11:59:12;3.17;;;2.85;;
44664;SDS011;30382;48.802;9.388;2022-07-19T12:01:59;3.38;;;3.13;;
44664;SDS011;30382;48.802;9.388;2022-07-19T12:07:27;4.07;;;3.13;;
44664;SDS011;30382;48.802;9.388;2022-07-19T12:10:31;4.03;;;2.95;;
44664;SDS011;30382;48.802;9.388;2022-07-19T12:13:27;5.00;;;3.13;;
44664;SDS011;30382;48.802;9.388;2022-07-19T12:16:12;4.13;;;3.50;;
44664;SDS011;30382;48.802;9.388;2022-07-19T12:18:57;7.05;;;3.17;;
44664;SDS011;30382;48.802;9.388;2022-07-19T12:21:41;7.13;;;3.65;;
44664;SDS011;30382;48.802;9.388;2022-07-19T12:24:26;8.48;;;3.92;;
44664;SDS011;30382;48.802;9.388;2022-07-19T12:27:13;3.38;;;2.88;;
44664;SDS011;30382;48.802;9.388;2022-07-19T12:29:59;7.30;;;3.65;;
44664;SDS011;30382;48.802;9.388;2022-07-19T12:32:43;3.97;;;3.30;;
44664;SDS011;30382;48.802;9.388;2022-07-19T12:35:30;3.13;;;2.85;;
44664;SDS011;30382;48.802;9.388;2022-07-19T12:38:27;5.22;;;3.60;;
44664;SDS011;30382;48.802;9.388;2022-07-19T12:41:14;4.25;;;3.80;;
44664;SDS011;30382;48.802;9.388;2022-07-19T12:43:58;4.18;;;2.90;;
44664;SDS011;30382;48.802;9.388;2022-07-19T12:46:42;4.20;;;3.63;;
44664;SDS011;30382;48.802;9.388;2022-07-19T12:49:39;4.07;;;3.67;;
44664;SDS011;30382;48.802;9.388;2022-07-19T12:52:23;4.90;;;4.10;;
44664;SDS011;30382;48.802;9.388;2022-07-19T12:55:08;5.10;;;3.47;;
44664;SDS011;30382;48.802;9.388;2022-07-19T12:57:53;5.32;;;3.95;;
44664;SDS011;30382;48.802;9.388;2022-07-19T13:00:37;3.33;;;3.08;;
44664;SDS011;30382;48.802;9.388;2022-07-19T13:03:23;4.35;;;3.70;;
44664;SDS011;30382;48.802;9.388;2022-07-19T13:06:07;3.88;;;3.58;;
44664;SDS011;30382;48.802;9.388;2022-07-19T13:08:51;3.90;;;3.60;;
44664;SDS011;30382;48.802;9.388;2022-07-19T13:11:36;6.35;;;3.50;;
44664;SDS011;30382;48.802;9.388;2022-07-19T13:14:20;3.40;;;3.10;;
44664;SDS011;30382;48.802;9.388;2022-07-19T13:17:05;4.25;;;3.13;;
44664;SDS011;30382;48.802;9.388;2022-07-19T13:19:49;4.07;;;3.78;;
44664;SDS011;30382;48.802;9.388;2022-07-19T13:22:34;3.20;;;2.90;;
44664;SDS011;30382;48.802;9.388;2022-07-19T13:36:15;4.40;;;3.35;;
44664;SDS011;30382;48.802;9.388;2022-07-19T13:39:00;3.42;;;3.13;;
44664;SDS011;30382;48.802;9.388;2022-07-19T13:41:44;3.80;;;3.50;;
44664;SDS011;30382;48.802;9.388;2022-07-19T13:44:29;4.43;;;3.42;;
44664;SDS011;30382;48.802;9.388;2022-07-19T13:47:13;3.33;;;3.00;;
44664;SDS011;30382;48.802;9.388;2022-07-19T13:49:57;5.10;;;3.58;;
44664;SDS011;30382;48.802;9.388;2022-07-19T13:52:42;5.40;;;3.90;;
44664;SDS011;30382;48.802;9.388;2022-07-19T13:55:27;4.03;;;3.63;;
44664;SDS011;30382;48.802;9.388;2022-07-19T13:58:11;3.85;;;3.38;;
44664;SDS011;30382;48.802;9.388;2022-07-19T14:00:56;3.35;;;2.92;;
44664;SDS011;30382;48.802;9.388;2022-07-19T14:03:40;3.95;;;3.50;;
44664;SDS011;30382;48.802;9.388;2022-07-19T14:06:24;5.57;;;4.53;;
44664;SDS011;30382;48.802;9.388;2022-07-19T14:09:10;3.90;;;3.20;;
44664;SDS011;30382;48.802;9.388;2022-07-19T14:11:55;6.30;;;3.75;;
44664;SDS011;30382;48.802;9.388;2022-07-19T14:14:40;3.67;;;3.38;;
44664;SDS011;30382;48.802;9.388;2022-07-19T14:17:24;5.85;;;3.67;;
44664;SDS011;30382;48.802;9.388;2022-07-19T14:20:09;3.70;;;3.38;;
44664;SDS011;30382;48.802;9.388;2022-07-19T14:22:54;3.58;;;3.30;;
44664;SDS011;30382;48.802;9.388;2022-07-19T14:25:38;5.35;;;4.03;;
44664;SDS011;30382;48.802;9.388;2022-07-19T14:28:23;3.45;;;3.03;;
44664;SDS011;30382;48.802;9.388;2022-07-19T14:31:07;3.20;;;2.90;;
44664;SDS011;30382;48.802;9.388;2022-07-19T14:33:51;3.92;;;3.30;;
44664;SDS011;30382;48.802;9.388;2022-07-19T14:36:36;3.90;;;3.63;;
44664;SDS011;30382;48.802;9.388;2022-07-19T14:39:20;3.92;;;3.25;;
44664;SDS011;30382;48.802;9.388;2022-07-19T14:42:04;4.28;;;3.78;;
44664;SDS011;30382;48.802;9.388;2022-07-19T14:44:48;4.30;;;3.10;;
44664;SDS011;30382;48.802;9.388;2022-07-19T14:47:33;3.58;;;3.15;;
44664;SDS011;30382;48.802;9.388;2022-07-19T14:50:18;3.33;;;3.03;;
44664;SDS011;30382;48.802;9.388;2022-07-19T14:53:02;2.97;;;2.70;;
44664;SDS011;30382;48.802;9.388;2022-07-19T14:55:46;5.00;;;3.47;;
44664;SDS011;30382;48.802;9.388;2022-07-19T14:58:31;3.78;;;3.47;;
44664;SDS011;30382;48.802;9.388;2022-07-19T15:01:15;6.80;;;3.05;;
44664;SDS011;30382;48.802;9.388;2022-07-19T15:03:59;3.75;;;2.90;;
44664;SDS011;30382;48.802;9.388;2022-07-19T15:06:44;5.18;;;2.90;;
44664;SDS011;30382;48.802;9.388;2022-07-19T15:09:28;5.75;;;3.53;;
44664;SDS011;30382;48.802;9.388;2022-07-19T15:12:12;4.20;;;3.22;;
44664;SDS011;30382;48.802;9.388;2022-07-19T15:14:56;3.20;;;2.90;;
44664;SDS011;30382;48.802;9.388;2022-07-19T15:17:41;4.13;;;3.10;;
44664;SDS011;30382;48.802;9.388;2022-07-19T15:20:25;3.92;;;3.65;;
44664;SDS011;30382;48.802;9.388;2022-07-19T15:23:10;4.25;;;3.10;;
44664;SDS011;30382;48.802;9.388;2022-07-19T15:25:55;4.07;;;3.30;;
44664;SDS011;30382;48.802;9.388;2022-07-19T15:28:40;3.38;;;3.15;;
44664;SDS011;30382;48.802;9.388;2022-07-19T15:31:24;8.00;;;3.78;;
44664;SDS011;30382;48.802;9.388;2022-07-19T15:34:08;3.85;;;3.33;;
44664;SDS011;30382;48.802;9.388;2022-07-19T15:36:53;5.15;;;3.13;;
44664;SDS011;30382;48.802;9.388;2022-07-19T15:39:37;4.75;;;3.25;;
44664;SDS011;30382;48.802;9.388;2022-07-19T15:42:21;5.03;;;3.60;;
44664;SDS011;30382;48.802;9.388;2022-07-19T15:45:06;3.17;;;2.97;;
44664;SDS011;30382;48.802;9.388;2022-07-19T15:47:50;3.60;;;3.22;;
44664;SDS011;30382;48.802;9.388;2022-07-19T15:50:34;4.65;;;3.65;;
44664;SDS011;30382;48.802;9.388;2022-07-19T15:53:21;4.15;;;3.40;;
44664;SDS011;30382;48.802;9.388;2022-07-19T15:58:49;3.00;;;2.72;;
44664;SDS011;30382;48.802;9.388;2022-07-19T16:07:02;3.05;;;2.85;;
44664;SDS011;30382;48.802;9.388;2022-07-19T16:09:46;4.18;;;2.80;;
44664;SDS011;30382;48.802;9.388;2022-07-19T16:12:31;3.95;;;3.35;;
44664;SDS011;30382;48.802;9.388;2022-07-19T16:15:15;3.15;;;2.92;;
44664;SDS011;30382;48.802;9.388;2022-07-19T16:18:01;3.22;;;2.90;;
44664;SDS011;30382;48.802;9.388;2022-07-19T16:20:47;8.90;;;3.70;;
44664;SDS011;30382;48.802;9.388;2022-07-19T16:23:31;4.13;;;3.25;;
44664;SDS011;30382;48.802;9.388;2022-07-19T16:26:16;3.08;;;2.92;;
44664;SDS011;30382;48.802;9.388;2022-07-19T16:29:00;3.70;;;3.45;;
44664;SDS011;30382;48.802;9.388;2022-07-19T16:31:45;6.07;;;3.00;;
44664;SDS011;30382;48.802;9.388;2022-07-19T16:34:29;6.75;;;3.35;;
44664;SDS011;30382;48.802;9.388;2022-07-19T16:37:14;5.68;;;4.28;;
44664;SDS011;30382;48.802;9.388;2022-07-19T16:39:59;4.55;;;3.63;;
44664;SDS011;30382;48.802;9.388;2022-07-19T16:42:43;4.07;;;3.78;;
44664;SDS011;30382;48.802;9.388;2022-07-19T16:45:28;3.50;;;3.30;;
44664;SDS011;30382;48.802;9.388;2022-07-19T16:48:12;4.68;;;3.75;;
44664;SDS011;30382;48.802;9.388;2022-07-19T16:50:56;5.28;;;3.50;;
44664;SDS011;30382;48.802;9.388;2022-07-19T16:59:09;3.38;;;3.08;;
44664;SDS011;30382;48.802;9.388;2022-07-19T17:01:54;4.85;;;3.33;;
44664;SDS011;30382;48.802;9.388;2022-07-19T17:04:38;4.82;;;4.10;;
44664;SDS011;30382;48.802;9.388;2022-07-19T17:07:24;3.90;;;3.53;;
44664;SDS011;30382;48.802;9.388;2022-07-19T17:10:09;3.85;;;3.65;;
44664;SDS011;30382;48.802;9.388;2022-07-19T17:12:53;4.50;;;4.10;;
44664;SDS011;30382;48.802;9.388;2022-07-19T17:15:37;4.30;;;3.47;;
44664;SDS011;30382;48.802;9.388;2022-07-19T17:18:22;4.55;;;4.00;;
44664;SDS011;30382;48.802;9.388;2022-07-19T17:23:51;5.10;;;3.70;;
44664;SDS011;30382;48.802;9.388;2022-07-19T17:26:35;6.77;;;4.20;;
44664;SDS011;30382;48.802;9.388;2022-07-19T17:29:21;4.90;;;4.40;;
44664;SDS011;30382;48.802;9.388;2022-07-19T17:32:05;4.83;;;3.67;;
44664;SDS011;30382;48.802;9.388;2022-07-19T17:34:49;3.87;;;3.53;;
44664;SDS011;30382;48.802;9.388;2022-07-19T17:37:34;4.83;;;3.70;;
44664;SDS011;30382;48.802;9.388;2022-07-19T17:40:18;4.03;;;3.73;;
44664;SDS011;30382;48.802;9.388;2022-07-19T17:43:03;6.20;;;4.17;;
44664;SDS011;30382;48.802;9.388;2022-07-19T17:45:47;4.07;;;3.77;;
44664;SDS011;30382;48.802;9.388;2022-07-19T17:48:32;4.23;;;3.93;;
44664;SDS011;30382;48.802;9.388;2022-07-19T17:51:16;6.07;;;4.10;;
44664;SDS011;30382;48.802;9.388;2022-07-19T17:54:00;6.33;;;3.73;;
44664;SDS011;30382;48.802;9.388;2022-07-19T17:56:45;7.37;;;3.93;;
44664;SDS011;30382;48.802;9.388;2022-07-19T17:59:29;3.80;;;3.50;;
44664;SDS011;30382;48.802;9.388;2022-07-19T18:02:13;4.97;;;4.37;;
44664;SDS011;30382;48.802;9.388;2022-07-19T18:04:57;5.67;;;3.80;;
44664;SDS011;30382;48.802;9.388;2022-07-19T18:07:42;4.43;;;4.00;;
44664;SDS011;30382;48.802;9.388;2022-07-19T18:10:26;4.50;;;4.10;;
44664;SDS011;30382;48.802;9.388;2022-07-19T18:13:10;6.93;;;4.60;;
44664;SDS011;30382;48.802;9.388;2022-07-19T18:15:55;4.50;;;3.97;;
44664;SDS011;30382;48.802;9.388;2022-07-19T18:18:39;4.63;;;3.70;;
44664;SDS011;30382;48.802;9.388;2022-07-19T18:21:23;5.23;;;4.10;;
44664;SDS011;30382;48.802;9.388;2022-07-19T18:24:07;4.10;;;3.27;;
44664;SDS011;30382;48.802;9.388;2022-07-19T18:26:52;9.90;;;4.33;;
44664;SDS011;30382;48.802;9.388;2022-07-19T18:29:36;3.93;;;3.53;;
44664;SDS011;30382;48.802;9.388;2022-07-19T18:32:20;3.93;;;3.67;;
44664;SDS011;30382;48.802;9.388;2022-07-19T18:35:05;4.90;;;4.23;;
44664;SDS011;30382;48.802;9.388;2022-07-19T18:37:49;6.87;;;4.17;;
44664;SDS011;30382;48.802;9.388;2022-07-19T18:40:34;5.63;;;4.43;;
44664;SDS011;30382;48.802;9.388;2022-07-19T18:43:18;5.37;;;4.70;;
44664;SDS011;30382;48.802;9.388;2022-07-19T18:46:02;4.43;;;4.10;;
44664;SDS011;30382;48.802;9.388;2022-07-19T18:48:46;7.50;;;5.17;;
44664;SDS011;30382;48.802;9.388;2022-07-19T18:51:31;6.67;;;4.10;;
44664;SDS011;30382;48.802;9.388;2022-07-19T18:54:15;4.83;;;4.33;;
44664;SDS011;30382;48.802;9.388;2022-07-19T18:57:00;8.57;;;4.53;;
44664;SDS011;30382;48.802;9.388;2022-07-19T18:59:45;8.27;;;5.30;;
44664;SDS011;30382;48.802;9.388;2022-07-19T19:02:30;5.63;;;4.80;;
44664;SDS011;30382;48.802;9.388;2022-07-19T19:05:14;7.27;;;5.07;;
44664;SDS011;30382;48.802;9.388;2022-07-19T19:07:59;4.90;;;4.50;;
44664;SDS011;30382;48.802;9.388;2022-07-19T19:10:43;5.47;;;4.90;;
44664;SDS011;30382;48.802;9.388;2022-07-19T19:13:28;7.43;;;5.13;;
44664;SDS011;30382;48.802;9.388;2022-07-19T19:19:04;5.23;;;3.83;;
44664;SDS011;30382;48.802;9.388;2022-07-19T19:21:49;4.10;;;3.70;;
44664;SDS011;30382;48.802;9.388;2022-07-19T19:24:33;4.47;;;4.13;;
44664;SDS011;30382;48.802;9.388;2022-07-19T19:27:17;7.07;;;4.03;;
44664;SDS011;30382;48.802;9.388;2022-07-19T19:30:02;4.93;;;4.10;;
44664;SDS011;30382;48.802;9.388;2022-07-19T19:32:47;4.73;;;4.10;;
44664;SDS011;30382;48.802;9.388;2022-07-19T19:38:15;7.83;;;4.67;;
44664;SDS011;30382;48.802;9.388;2022-07-19T19:41:00;5.27;;;4.80;;
44664;SDS011;30382;48.802;9.388;2022-07-19T19:46:28;7.47;;;4.60;;
44664;SDS011;30382;48.802;9.388;2022-07-19T19:49:13;6.27;;;4.80;;
44664;SDS011;30382;48.802;9.388;2022-07-19T19:51:58;4.40;;;4.00;;
44664;SDS011;30382;48.802;9.388;2022-07-19T19:54:42;4.63;;;4.23;;
44664;SDS011;30382;48.802;9.388;2022-07-19T19:57:27;5.07;;;4.03;;
44664;SDS011;30382;48.802;9.388;2022-07-19T20:00:12;6.17;;;5.03;;
44664;SDS011;30382;48.802;9.388;2022-07-19T20:02:56;5.37;;;4.37;;
44664;SDS011;30382;48.802;9.388;2022-07-19T20:05:43;6.93;;;4.50;;
44664;SDS011;30382;48.802;9.388;2022-07-19T20:08:28;5.13;;;4.40;;
44664;SDS011;30382;48.802;9.388;2022-07-19T20:11:13;4.40;;;4.10;;